Time;durP1;ratioP1;P1;durP2;ratioP2;P2;SDS_P1;SDS_P2;PMS_P1;PMS_P2;Temp;Humidity;BMP_temperature;BMP_pressure;BME280_temperature;BME280_humidity;BME280_pressure;Samples;Min_cycle;Max_cycle;Signal;HPM_P1;HPM_P2
2022/12/21 00:05:40;;;;;;;8.75;7.05;;;;;;;20.33;49.31;101117.41;20827766;28;20052;-78
2022/12/21 00:15:41;;;;;;;11.07;7.68;;;;;;;20.34;49.41;101111.19;20837675;28;20049;-80
2022/12/21 00:25:41;;;;;;;9.82;7.38;;;;;;;20.34;49.02;101099.84;20831165;28;20092;-79
2022/12/21 00:35:51;;;;;;;8.40;6.63;;;;;;;20.32;49.68;101097.28;20827996;28;20110;-78
2022/12/21 00:45:53;;;;;;;11.40;7.28;;;;;;;20.30;48.95;101097.41;20821323;28;20056;-78
2022/12/21 00:55:58;;;;;;;10.80;7.60;;;;;;;20.30;49.17;101091.31;20852056;28;20076;-78
2022/12/21 01:05:59;;;;;;;10.57;7.13;;;;;;;20.30;48.84;101099.19;20858450;28;20036;-79
2022/12/21 01:15:59;;;;;;;10.23;6.88;;;;;;;20.27;48.92;101081.78;20853296;28;20060;-77
2022/12/21 01:26:00;;;;;;;9.48;7.00;;;;;;;20.25;49.18;101067.91;20859533;28;20045;-78
2022/12/21 01:36:10;;;;;;;9.70;6.93;;;;;;;20.27;49.03;101054.66;20849403;28;20052;-78
2022/12/21 01:46:33;;;;;;;10.07;7.38;;;;;;;20.24;49.51;101047.81;20872737;28;20057;-79
2022/12/21 01:56:37;;;;;;;9.35;6.85;;;;;;;20.24;48.97;101037.28;20851308;28;20045;-78
2022/12/21 02:06:47;;;;;;;9.00;6.63;;;;;;;20.23;49.06;101032.13;20855044;28;20033;-78
2022/12/21 02:17:10;;;;;;;9.23;6.38;;;;;;;20.23;49.24;101022.44;20833179;28;20044;-78
2022/12/21 02:27:28;;;;;;;8.38;6.43;;;;;;;20.22;48.78;100996.25;20850591;28;20056;-79
2022/12/21 02:37:44;;;;;;;8.57;6.50;;;;;;;20.23;49.01;100987.44;20863926;28;20079;-78
2022/12/21 02:47:50;;;;;;;8.65;6.80;;;;;;;20.24;48.63;100973.34;20834548;28;20124;-78
2022/12/21 02:58:12;;;;;;;9.68;6.53;;;;;;;20.25;48.79;100986.41;20848204;28;20094;-80
2022/12/21 03:08:35;;;;;;;10.80;7.20;;;;;;;20.25;48.73;100969.75;20836610;28;20076;-80
2022/12/21 03:18:55;;;;;;;8.40;6.25;;;;;;;20.23;49.10;100958.50;20852998;28;20059;-80
2022/12/21 03:28:59;;;;;;;9.93;6.15;;;;;;;20.23;49.09;100937.47;20844603;28;20045;-79
2022/12/21 03:39:06;;;;;;;8.63;6.32;;;;;;;20.22;48.77;100941.88;20857626;28;20055;-81
2022/12/21 03:49:12;;;;;;;9.85;6.90;;;;;;;20.22;49.08;100938.41;20860394;28;20047;-81
2022/12/21 03:59:14;;;;;;;8.73;6.50;;;;;;;20.20;48.78;100937.66;20861884;28;20036;-80
2022/12/21 04:09:15;;;;;;;9.75;6.10;;;;;;;20.21;48.75;100952.50;20842281;28;20407;-81
2022/12/21 04:29:34;;;;;;;8.45;5.85;;;;;;;20.22;48.46;100925.25;20845285;28;20041;-81
2022/12/21 04:39:35;;;;;;;8.68;6.07;;;;;;;20.20;48.47;100924.50;20839901;28;20095;-80
2022/12/21 04:49:35;;;;;;;7.78;5.68;;;;;;;20.22;48.81;100933.16;20840691;28;20381;-79
2022/12/21 04:59:36;;;;;;;8.43;5.50;;;;;;;20.23;49.02;100921.69;20836429;28;20040;-79
2022/12/21 05:09:36;;;;;;;9.07;5.90;;;;;;;20.22;48.98;100923.47;20813184;28;20040;-77
2022/12/21 05:19:36;;;;;;;10.18;5.95;;;;;;;20.36;49.58;100909.44;20819366;28;20037;-81
2022/12/21 05:29:37;;;;;;;14.77;5.82;;;;;;;20.43;49.00;100907.22;20840708;28;20506;-77
2022/12/21 05:39:37;;;;;;;10.73;5.63;;;;;;;20.53;49.24;100912.72;20835827;28;20045;-80
2022/12/21 05:49:38;;;;;;;12.13;6.70;;;;;;;20.55;49.10;100906.41;20835076;28;20080;-77
2022/12/21 05:59:38;;;;;;;14.43;7.03;;;;;;;20.63;49.30;100905.91;20831675;28;20044;-85
2022/12/21 06:09:40;;;;;;;17.17;7.57;;;;;;;20.66;48.43;100902.25;20855840;28;20041;-85
2022/12/21 06:19:40;;;;;;;18.70;6.80;;;;;;;20.78;49.02;100904.06;20874596;28;20037;-81
2022/12/21 06:29:41;;;;;;;12.82;7.72;;;;;;;20.75;46.33;100912.16;20883951;28;20407;-82
2022/12/21 06:39:41;;;;;;;16.00;7.35;;;;;;;20.79;46.81;100892.59;20863565;28;20064;-80
2022/12/21 06:49:42;;;;;;;11.82;6.80;;;;;;;20.87;47.73;100885.03;20821661;28;20076;-83
2022/12/21 06:59:43;;;;;;;14.95;7.13;;;;;;;20.94;47.47;100881.00;20861510;28;20060;-79
2022/12/21 07:09:44;;;;;;;15.00;7.18;;;;;;;20.98;47.51;100875.53;20866296;28;20045;-79
2022/12/21 07:19:45;;;;;;;13.02;6.30;;;;;;;21.02;47.41;100869.97;20871911;28;20099;-80
2022/12/21 07:29:45;;;;;;;16.48;7.07;;;;;;;21.10;47.91;100891.34;20879232;28;20049;-83
2022/12/21 07:39:45;;;;;;;11.05;6.10;;;;;;;21.16;47.79;100882.16;20850980;28;20072;-80
2022/12/21 07:49:46;;;;;;;10.88;6.60;;;;;;;21.18;47.00;100875.00;20867031;28;20037;-78
2022/12/21 07:59:46;;;;;;;12.05;7.00;;;;;;;21.22;47.34;100862.47;20882954;28;20064;-80
2022/12/21 08:09:48;;;;;;;14.32;6.65;;;;;;;21.27;47.75;100863.81;20862661;28;20048;-78
2022/12/21 08:19:48;;;;;;;17.90;6.65;;;;;;;21.28;47.87;100860.22;20840764;28;20067;-78
2022/12/21 08:29:49;;;;;;;14.85;7.53;;;;;;;21.31;48.25;100859.16;20838783;28;20045;-77
2022/12/21 08:39:49;;;;;;;21.15;9.10;;;;;;;21.33;48.38;100864.34;20854631;28;21853;-78
2022/12/21 08:49:49;;;;;;;13.00;8.55;;;;;;;21.37;48.74;100856.13;20860731;28;20040;-80
2022/12/21 08:59:51;;;;;;;15.95;10.25;;;;;;;21.40;48.13;100847.16;20867373;28;20037;-80
2022/12/21 09:09:51;;;;;;;18.73;11.23;;;;;;;21.42;47.86;100850.50;20879356;28;20068;-79
2022/12/21 09:19:53;;;;;;;19.58;12.02;;;;;;;21.45;48.03;100842.41;20889842;28;20085;-80
2022/12/21 09:29:54;;;;;;;21.00;10.37;;;;;;;21.43;48.18;100829.34;20887993;28;20037;-79
2022/12/21 09:39:54;;;;;;;25.70;10.90;;;;;;;21.41;48.57;100812.78;20887912;28;20071;-81
2022/12/21 09:50:02;;;;;;;17.88;11.32;;;;;;;21.36;48.22;100796.50;20875854;28;20064;-79
2022/12/21 10:00:13;;;;;;;20.95;11.50;;;;;;;21.34;48.12;100785.22;20875338;28;20055;-77
2022/12/21 10:10:26;;;;;;;17.45;12.23;;;;;;;21.35;47.96;100791.31;20885195;28;20049;-80
2022/12/21 10:20:54;;;;;;;15.98;10.48;;;;;;;21.30;48.07;100778.50;20874160;28;23123;-80
2022/12/21 10:31:03;;;;;;;19.15;11.48;;;;;;;21.28;47.13;100775.94;20863394;28;20423;-80
2022/12/21 10:41:10;;;;;;;20.80;12.15;;;;;;;21.28;47.26;100764.59;20864899;28;20066;-80
2022/12/21 10:51:32;;;;;;;16.35;11.13;;;;;;;21.32;48.07;100767.84;20823235;28;20561;-77
2022/12/21 11:01:33;;;;;;;15.80;10.93;;;;;;;21.27;47.59;100740.03;20882702;28;20086;-82
2022/12/21 11:11:37;;;;;;;17.17;11.90;;;;;;;21.27;47.82;100724.22;20848029;28;20045;-80
2022/12/21 11:21:58;;;;;;;15.15;10.48;;;;;;;21.31;48.11;100716.94;20862254;28;20134;-78
2022/12/21 11:32:09;;;;;;;15.25;10.93;;;;;;;21.30;47.69;100710.00;20843157;28;20060;-76
2022/12/21 11:42:21;;;;;;;23.00;11.40;;;;;;;21.31;47.22;100710.84;20816550;28;20109;-76
2022/12/21 11:52:46;;;;;;;16.83;11.43;;;;;;;21.22;46.50;100692.13;20831616;28;20086;-78
2022/12/21 12:03:12;;;;;;;17.92;10.98;;;;;;;21.25;46.66;100670.84;20850772;28;20045;-77
2022/12/21 12:13:21;;;;;;;14.05;10.02;;;;;;;21.25;46.84;100665.56;20851034;28;20052;-80
2022/12/21 12:23:52;;;;;;;18.15;11.07;;;;;;;21.25;46.87;100665.56;20855593;28;20044;-79
2022/12/21 12:34:08;;;;;;;17.38;10.85;;;;;;;21.25;47.15;100657.66;20818227;28;20142;-78
2022/12/21 12:44:14;;;;;;;15.68;10.90;;;;;;;21.26;47.47;100659.34;20850737;28;20455;-80
2022/12/21 12:54:58;;;;;;;16.48;10.80;;;;;;;21.28;47.06;100656.59;20864793;28;20112;-78
2022/12/21 13:05:08;;;;;;;15.40;11.18;;;;;;;21.24;46.50;100655.16;20890294;28;20128;-80
2022/12/21 13:15:23;;;;;;;14.63;10.50;;;;;;;21.24;46.75;100658.63;20890628;28;20415;-79
2022/12/21 13:25:48;;;;;;;15.98;10.90;;;;;;;21.23;46.63;100650.84;20860322;28;20064;-79
2022/12/21 13:35:57;;;;;;;15.32;10.65;;;;;;;21.23;46.43;100650.84;20870502;28;20088;-75
2022/12/21 13:46:07;;;;;;;15.85;10.88;;;;;;;21.22;46.58;100647.34;20846253;28;20053;-77
2022/12/21 13:56:23;;;;;;;14.82;10.27;;;;;;;21.25;46.01;100639.22;20856810;28;20163;-76
2022/12/21 14:06:38;;;;;;;15.25;9.75;;;;;;;21.25;45.84;100617.31;20832291;28;20668;-76
2022/12/21 14:16:39;;;;;;;15.15;10.50;;;;;;;21.24;45.64;100610.38;20838502;28;20059;-78
2022/12/21 14:26:47;;;;;;;14.68;10.07;;;;;;;21.22;45.40;100593.84;20845782;28;20041;-77
2022/12/21 14:37:21;;;;;;;17.02;10.07;;;;;;;21.18;45.38;100595.88;20859403;28;20043;-77
2022/12/21 14:47:22;;;;;;;15.52;10.38;;;;;;;21.17;45.53;100628.41;20835760;28;20072;-77
2022/12/21 14:57:33;;;;;;;14.23;9.88;;;;;;;21.16;45.22;100641.69;20855968;28;20077;-76
2022/12/21 15:07:47;;;;;;;18.17;10.55;;;;;;;21.11;45.35;100637.59;20843513;28;20526;-77
2022/12/21 15:17:48;;;;;;;13.43;9.95;;;;;;;21.07;45.17;100628.25;20835288;28;20952;-75
2022/12/21 15:28:03;;;;;;;15.70;9.98;;;;;;;21.03;45.56;100602.25;20828843;28;20245;-80
2022/12/21 15:38:30;;;;;;;15.95;9.75;;;;;;;21.03;45.15;100623.31;20854976;28;20136;-81
2022/12/21 15:48:39;;;;;;;17.63;10.23;;;;;;;21.00;45.42;100610.38;20863381;28;21048;-81
2022/12/21 15:58:40;;;;;;;14.60;9.93;;;;;;;20.95;45.47;100605.47;20857836;28;20048;-80
2022/12/21 16:08:45;;;;;;;14.02;9.77;;;;;;;20.90;45.28;100613.69;20846342;28;20569;-80
2022/12/21 16:18:45;;;;;;;15.00;9.43;;;;;;;20.89;45.35;100624.31;20833723;28;20045;-81
2022/12/21 16:28:54;;;;;;;13.25;9.25;;;;;;;20.85;45.38;100623.72;20853067;28;20473;-81
2022/12/21 16:38:57;;;;;;;11.93;8.75;;;;;;;20.82;45.25;100604.66;20848481;28;20144;-80
2022/12/21 16:48:57;;;;;;;16.50;9.30;;;;;;;20.75;45.36;100618.28;20795025;28;20108;-77
2022/12/21 16:59:00;;;;;;;15.25;9.50;;;;;;;20.76;45.38;100608.56;20806401;28;20317;-80
2022/12/21 17:09:02;;;;;;;16.03;9.37;;;;;;;20.73;45.22;100628.06;20806789;28;20048;-77
2022/12/21 17:19:25;;;;;;;13.80;9.48;;;;;;;20.69;46.46;100617.81;20788377;28;20037;-77
2022/12/21 17:29:26;;;;;;;20.98;9.00;;;;;;;20.70;48.56;100615.09;20820811;28;20037;-79
2022/12/21 17:39:27;;;;;;;17.20;8.88;;;;;;;20.74;48.64;100599.97;20867593;28;20044;-81
2022/12/21 17:49:27;;;;;;;15.35;9.15;;;;;;;20.76;48.43;100592.78;20869277;28;20040;-80
2022/12/21 17:59:27;;;;;;;14.05;8.88;;;;;;;20.76;48.78;100590.16;20870411;28;20041;-80
2022/12/21 18:09:29;;;;;;;17.40;8.50;;;;;;;20.81;48.16;100581.94;20836704;28;20037;-77
2022/12/21 18:19:30;;;;;;;12.60;8.60;;;;;;;20.79;48.31;100568.88;20840213;28;20679;-77
2022/12/21 18:29:30;;;;;;;13.43;8.88;;;;;;;20.77;48.19;100568.16;20871402;28;20059;-77
2022/12/21 18:39:31;;;;;;;13.45;8.68;;;;;;;20.70;48.34;100562.47;20831662;28;20503;-76
2022/12/21 18:49:39;;;;;;;14.10;8.55;;;;;;;20.73;48.43;100545.66;20853030;28;20044;-86
2022/12/21 18:59:40;;;;;;;14.05;9.13;;;;;;;20.76;48.36;100541.00;20861831;28;20041;-80
2022/12/21 19:09:42;;;;;;;15.13;8.30;;;;;;;20.71;49.35;100545.72;20850865;28;20037;-78
2022/12/21 19:19:43;;;;;;;12.77;8.27;;;;;;;20.69;49.00;100554.66;20855330;28;20037;-78
2022/12/21 19:29:44;;;;;;;13.43;8.70;;;;;;;20.66;49.36;100557.53;20861698;28;20047;-77
2022/12/21 19:39:45;;;;;;;13.13;8.43;;;;;;;20.64;49.63;100563.75;20856768;28;20044;-80
2022/12/21 19:49:47;;;;;;;12.02;8.10;;;;;;;20.63;49.60;100569.13;20891791;28;20048;-81
2022/12/21 19:59:49;;;;;;;12.43;8.13;;;;;;;20.61;49.22;100556.06;20860738;28;20037;-81
2022/12/21 20:09:49;;;;;;;13.17;7.83;;;;;;;20.59;49.43;100551.88;20894713;28;20091;-79
2022/12/21 20:19:50;;;;;;;12.00;7.90;;;;;;;20.62;49.48;100563.00;20870440;28;20025;-77
2022/12/21 20:29:50;;;;;;;12.50;8.23;;;;;;;20.60;49.32;100561.44;20858111;28;20041;-77
2022/12/21 20:39:51;;;;;;;13.88;8.40;;;;;;;20.63;48.80;100551.53;20865788;28;20032;-84
2022/12/21 20:49:53;;;;;;;11.63;7.80;;;;;;;20.62;48.84;100552.50;20824885;28;20045;-79
2022/12/21 20:59:54;;;;;;;15.70;9.38;;;;;;;20.52;47.95;100540.09;20810872;28;20037;-81
2022/12/21 21:09:54;;;;;;;14.57;9.65;;;;;;;20.46;47.90;100536.97;20839096;28;20037;-81
2022/12/21 21:19:59;;;;;;;16.25;9.05;;;;;;;20.44;48.12;100538.03;20820740;28;20047;-82
2022/12/21 21:29:59;;;;;;;15.98;9.55;;;;;;;20.46;47.54;100530.88;20862308;28;20036;-82
2022/12/21 21:50:26;;;;;;;15.13;9.20;;;;;;;20.45;47.54;100514.25;20899823;28;20057;-82
2022/12/21 22:00:27;;;;;;;13.32;8.95;;;;;;;20.42;47.74;100519.75;20882333;28;20047;-81
2022/12/21 22:10:33;;;;;;;16.05;9.50;;;;;;;20.40;48.14;100515.56;20859129;28;20044;-81
2022/12/21 22:51:32;;;;;;;13.88;8.13;;;;;;;20.35;48.83;100533.44;20879492;28;20073;-80
2022/12/21 23:01:33;;;;;;;11.80;8.02;;;;;;;20.31;48.97;100538.91;20863502;28;20121;-80
2022/12/21 23:11:38;;;;;;;12.05;8.93;;;;;;;20.29;48.80;100516.31;20868245;28;20048;-82
